sensor_id;sensor_type;location;lat;lon;timestamp;temperature;humidity
75010;DHT22;63564;46.840;18.336;2023-12-29T00:01:37;4.35;93.63
75010;DHT22;63564;46.840;18.336;2023-12-29T00:04:38;4.57;95.76
75010;DHT22;63564;46.840;18.336;2023-12-29T00:07:38;4.81;94.81
75010;DHT22;63564;46.840;18.336;2023-12-29T00:10:39;5.04;94.40
75010;DHT22;63564;46.840;18.336;2023-12-29T00:13:39;5.12;93.61
75010;DHT22;63564;46.840;18.336;2023-12-29T00:16:39;5.25;93.59
75010;DHT22;63564;46.840;18.336;2023-12-29T00:19:40;5.15;93.44
75010;DHT22;63564;46.840;18.336;2023-12-29T00:22:40;5.29;93.00
75010;DHT22;63564;46.840;18.336;2023-12-29T00:25:41;5.07;93.18
75010;DHT22;63564;46.840;18.336;2023-12-29T00:28:41;5.25;93.63
75010;DHT22;63564;46.840;18.336;2023-12-29T00:31:42;5.36;92.94
75010;DHT22;63564;46.840;18.336;2023-12-29T00:34:42;5.36;92.75
75010;DHT22;63564;46.840;18.336;2023-12-29T00:37:42;5.27;92.82
75010;DHT22;63564;46.840;18.336;2023-12-29T00:40:43;5.22;92.68
75010;DHT22;63564;46.840;18.336;2023-12-29T00:43:43;5.25;92.72
75010;DHT22;63564;46.840;18.336;2023-12-29T00:46:43;5.22;93.03
75010;DHT22;63564;46.840;18.336;2023-12-29T00:49:44;5.25;93.38
75010;DHT22;63564;46.840;18.336;2023-12-29T00:52:44;5.29;93.33
75010;DHT22;63564;46.840;18.336;2023-12-29T00:55:44;5.38;93.19
75010;DHT22;63564;46.840;18.336;2023-12-29T00:58:45;5.42;93.21
75010;DHT22;63564;46.840;18.336;2023-12-29T01:01:45;5.43;92.57
75010;DHT22;63564;46.840;18.336;2023-12-29T01:04:46;5.39;92.82
75010;DHT22;63564;46.840;18.336;2023-12-29T01:07:46;5.28;93.42
75010;DHT22;63564;46.840;18.336;2023-12-29T01:10:46;5.38;93.54
75010;DHT22;63564;46.840;18.336;2023-12-29T01:13:47;5.34;93.61
75010;DHT22;63564;46.840;18.336;2023-12-29T01:16:47;5.36;93.42
75010;DHT22;63564;46.840;18.336;2023-12-29T01:19:47;5.29;93.37
75010;DHT22;63564;46.840;18.336;2023-12-29T01:22:48;5.36;93.22
75010;DHT22;63564;46.840;18.336;2023-12-29T01:25:48;5.40;93.11
75010;DHT22;63564;46.840;18.336;2023-12-29T01:28:48;5.36;93.16
75010;DHT22;63564;46.840;18.336;2023-12-29T01:31:49;5.48;92.89
75010;DHT22;63564;46.840;18.336;2023-12-29T01:34:52;5.45;92.69
75010;DHT22;63564;46.840;18.336;2023-12-29T01:37:52;5.50;92.57
75010;DHT22;63564;46.840;18.336;2023-12-29T01:40:53;5.42;92.52
75010;DHT22;63564;46.840;18.336;2023-12-29T01:46:59;5.43;92.55
75010;DHT22;63564;46.840;18.336;2023-12-29T01:50:00;5.42;92.36
75010;DHT22;63564;46.840;18.336;2023-12-29T01:53:01;5.34;92.37
75010;DHT22;63564;46.840;18.336;2023-12-29T01:56:02;5.40;92.43
75010;DHT22;63564;46.840;18.336;2023-12-29T01:59:03;5.40;92.37
75010;DHT22;63564;46.840;18.336;2023-12-29T02:02:04;5.49;92.25
75010;DHT22;63564;46.840;18.336;2023-12-29T02:05:05;5.55;92.04
75010;DHT22;63564;46.840;18.336;2023-12-29T02:08:07;5.40;92.25
75010;DHT22;63564;46.840;18.336;2023-12-29T02:11:07;5.55;92.18
75010;DHT22;63564;46.840;18.336;2023-12-29T02:14:08;5.59;91.78
75010;DHT22;63564;46.840;18.336;2023-12-29T02:17:17;5.56;91.73
75010;DHT22;63564;46.840;18.336;2023-12-29T02:20:22;5.59;91.68
75010;DHT22;63564;46.840;18.336;2023-12-29T02:23:22;5.67;91.34
75010;DHT22;63564;46.840;18.336;2023-12-29T02:26:29;5.59;91.66
75010;DHT22;63564;46.840;18.336;2023-12-29T02:29:30;5.56;91.63
75010;DHT22;63564;46.840;18.336;2023-12-29T02:32:33;5.55;91.28
75010;DHT22;63564;46.840;18.336;2023-12-29T02:35:39;5.48;91.36
75010;DHT22;63564;46.840;18.336;2023-12-29T02:38:41;5.49;91.75
75010;DHT22;63564;46.840;18.336;2023-12-29T02:41:41;5.49;91.41
75010;DHT22;63564;46.840;18.336;2023-12-29T02:44:42;5.50;91.40
75010;DHT22;63564;46.840;18.336;2023-12-29T02:47:43;5.53;91.71
75010;DHT22;63564;46.840;18.336;2023-12-29T02:50:43;5.34;90.59
75010;DHT22;63564;46.840;18.336;2023-12-29T02:53:44;5.32;91.90
75010;DHT22;63564;46.840;18.336;2023-12-29T02:56:44;5.27;92.02
75010;DHT22;63564;46.840;18.336;2023-12-29T02:59:44;5.31;92.00
75010;DHT22;63564;46.840;18.336;2023-12-29T03:02:45;5.31;92.35
75010;DHT22;63564;46.840;18.336;2023-12-29T03:05:45;5.24;92.10
75010;DHT22;63564;46.840;18.336;2023-12-29T03:08:46;5.36;92.30
75010;DHT22;63564;46.840;18.336;2023-12-29T03:11:46;5.49;91.68
75010;DHT22;63564;46.840;18.336;2023-12-29T03:14:47;5.52;91.01
75010;DHT22;63564;46.840;18.336;2023-12-29T03:17:47;5.34;90.82
75010;DHT22;63564;46.840;18.336;2023-12-29T03:20:47;5.12;91.56
75010;DHT22;63564;46.840;18.336;2023-12-29T03:23:48;4.95;91.86
75010;DHT22;63564;46.840;18.336;2023-12-29T03:26:48;4.70;93.62
75010;DHT22;63564;46.840;18.336;2023-12-29T03:29:48;4.69;93.53
75010;DHT22;63564;46.840;18.336;2023-12-29T03:32:49;4.70;93.78
75010;DHT22;63564;46.840;18.336;2023-12-29T03:35:49;4.66;93.34
75010;DHT22;63564;46.840;18.336;2023-12-29T03:38:49;4.52;93.88
75010;DHT22;63564;46.840;18.336;2023-12-29T03:41:50;4.31;94.58
75010;DHT22;63564;46.840;18.336;2023-12-29T03:44:50;4.34;95.03
75010;DHT22;63564;46.840;18.336;2023-12-29T03:47:50;4.57;94.54
75010;DHT22;63564;46.840;18.336;2023-12-29T03:50:51;4.66;93.94
75010;DHT22;63564;46.840;18.336;2023-12-29T03:53:51;4.77;93.81
75010;DHT22;63564;46.840;18.336;2023-12-29T03:56:51;4.70;93.52
75010;DHT22;63564;46.840;18.336;2023-12-29T03:59:52;4.62;93.75
75010;DHT22;63564;46.840;18.336;2023-12-29T04:02:52;4.56;94.40
75010;DHT22;63564;46.840;18.336;2023-12-29T04:05:53;4.53;94.43
75010;DHT22;63564;46.840;18.336;2023-12-29T04:08:53;4.67;94.10
75010;DHT22;63564;46.840;18.336;2023-12-29T04:11:53;4.67;94.03
75010;DHT22;63564;46.840;18.336;2023-12-29T04:14:54;4.72;93.85
75010;DHT22;63564;46.840;18.336;2023-12-29T04:17:54;4.56;93.43
75010;DHT22;63564;46.840;18.336;2023-12-29T04:20:54;4.50;94.20
75010;DHT22;63564;46.840;18.336;2023-12-29T04:23:55;4.41;94.53
75010;DHT22;63564;46.840;18.336;2023-12-29T04:26:55;4.35;94.56
75010;DHT22;63564;46.840;18.336;2023-12-29T04:29:55;4.31;94.77
75010;DHT22;63564;46.840;18.336;2023-12-29T04:32:56;4.26;94.41
75010;DHT22;63564;46.840;18.336;2023-12-29T04:35:56;4.36;94.91
75010;DHT22;63564;46.840;18.336;2023-12-29T04:38:56;4.36;94.66
75010;DHT22;63564;46.840;18.336;2023-12-29T04:41:57;4.26;95.04
75010;DHT22;63564;46.840;18.336;2023-12-29T04:44:57;4.38;94.93
75010;DHT22;63564;46.840;18.336;2023-12-29T04:47:57;4.46;94.80
75010;DHT22;63564;46.840;18.336;2023-12-29T04:50:58;4.46;94.20
75010;DHT22;63564;46.840;18.336;2023-12-29T04:53:58;4.46;94.26
75010;DHT22;63564;46.840;18.336;2023-12-29T04:56:58;4.31;94.38
75010;DHT22;63564;46.840;18.336;2023-12-29T04:59:59;4.31;94.70
75010;DHT22;63564;46.840;18.336;2023-12-29T05:02:59;4.38;94.91
75010;DHT22;63564;46.840;18.336;2023-12-29T05:06:00;4.29;95.10
75010;DHT22;63564;46.840;18.336;2023-12-29T05:09:00;4.45;94.91
75010;DHT22;63564;46.840;18.336;2023-12-29T05:12:00;4.46;94.23
75010;DHT22;63564;46.840;18.336;2023-12-29T05:15:01;4.43;93.73
75010;DHT22;63564;46.840;18.336;2023-12-29T05:18:01;4.21;94.43
75010;DHT22;63564;46.840;18.336;2023-12-29T05:21:02;4.02;94.59
75010;DHT22;63564;46.840;18.336;2023-12-29T05:24:02;4.12;94.93
75010;DHT22;63564;46.840;18.336;2023-12-29T05:27:04;3.88;94.59
75010;DHT22;63564;46.840;18.336;2023-12-29T05:30:05;3.70;95.09
75010;DHT22;63564;46.840;18.336;2023-12-29T05:33:06;3.60;95.24
75010;DHT22;63564;46.840;18.336;2023-12-29T05:36:08;3.60;95.34
75010;DHT22;63564;46.840;18.336;2023-12-29T05:39:08;3.60;95.21
75010;DHT22;63564;46.840;18.336;2023-12-29T05:42:09;3.53;96.37
75010;DHT22;63564;46.840;18.336;2023-12-29T05:45:09;3.40;97.17
75010;DHT22;63564;46.840;18.336;2023-12-29T05:48:10;3.35;97.45
75010;DHT22;63564;46.840;18.336;2023-12-29T05:51:12;3.48;98.09
75010;DHT22;63564;46.840;18.336;2023-12-29T05:54:13;3.73;98.01
75010;DHT22;63564;46.840;18.336;2023-12-29T05:57:13;3.84;97.71
75010;DHT22;63564;46.840;18.336;2023-12-29T06:00:14;3.95;96.93
75010;DHT22;63564;46.840;18.336;2023-12-29T06:03:14;3.84;96.45
75010;DHT22;63564;46.840;18.336;2023-12-29T06:06:15;3.93;96.22
75010;DHT22;63564;46.840;18.336;2023-12-29T06:09:15;3.99;96.66
75010;DHT22;63564;46.840;18.336;2023-12-29T06:12:15;3.94;96.51
75010;DHT22;63564;46.840;18.336;2023-12-29T06:15:16;3.97;96.79
75010;DHT22;63564;46.840;18.336;2023-12-29T06:18:16;3.97;96.78
75010;DHT22;63564;46.840;18.336;2023-12-29T06:21:17;4.04;96.71
75010;DHT22;63564;46.840;18.336;2023-12-29T06:24:17;4.19;96.73
75010;DHT22;63564;46.840;18.336;2023-12-29T06:27:18;4.21;96.23
75010;DHT22;63564;46.840;18.336;2023-12-29T06:30:19;4.19;95.97
75010;DHT22;63564;46.840;18.336;2023-12-29T06:33:19;4.16;95.99
75010;DHT22;63564;46.840;18.336;2023-12-29T06:36:22;4.24;95.89
75010;DHT22;63564;46.840;18.336;2023-12-29T06:39:22;4.12;95.13
75010;DHT22;63564;46.840;18.336;2023-12-29T06:42:23;4.09;96.14
75010;DHT22;63564;46.840;18.336;2023-12-29T06:45:23;3.87;95.69
75010;DHT22;63564;46.840;18.336;2023-12-29T06:48:24;3.88;96.19
75010;DHT22;63564;46.840;18.336;2023-12-29T06:51:24;3.91;96.76
75010;DHT22;63564;46.840;18.336;2023-12-29T06:54:24;3.99;96.50
75010;DHT22;63564;46.840;18.336;2023-12-29T06:57:25;3.81;96.93
75010;DHT22;63564;46.840;18.336;2023-12-29T07:00:25;3.70;96.99
75010;DHT22;63564;46.840;18.336;2023-12-29T07:03:25;3.50;97.10
75010;DHT22;63564;46.840;18.336;2023-12-29T07:06:26;3.59;96.92
75010;DHT22;63564;46.840;18.336;2023-12-29T07:09:26;3.63;97.01
75010;DHT22;63564;46.840;18.336;2023-12-29T07:12:27;3.76;97.25
75010;DHT22;63564;46.840;18.336;2023-12-29T07:15:27;3.81;97.38
75010;DHT22;63564;46.840;18.336;2023-12-29T07:18:27;3.90;97.17
75010;DHT22;63564;46.840;18.336;2023-12-29T07:21:28;4.09;96.63
75010;DHT22;63564;46.840;18.336;2023-12-29T07:24:28;4.18;95.78
75010;DHT22;63564;46.840;18.336;2023-12-29T07:27:28;4.22;96.18
75010;DHT22;63564;46.840;18.336;2023-12-29T07:30:29;4.26;96.09
75010;DHT22;63564;46.840;18.336;2023-12-29T07:33:30;4.32;96.25
75010;DHT22;63564;46.840;18.336;2023-12-29T07:36:30;4.36;95.99
75010;DHT22;63564;46.840;18.336;2023-12-29T07:39:31;4.56;95.86
75010;DHT22;63564;46.840;18.336;2023-12-29T07:42:31;4.60;95.43
75010;DHT22;63564;46.840;18.336;2023-12-29T07:45:32;4.81;95.26
75010;DHT22;63564;46.840;18.336;2023-12-29T07:48:32;4.90;94.60
75010;DHT22;63564;46.840;18.336;2023-12-29T07:51:33;4.90;93.85
75010;DHT22;63564;46.840;18.336;2023-12-29T07:54:34;5.00;93.01
75010;DHT22;63564;46.840;18.336;2023-12-29T07:57:34;4.73;92.25
75010;DHT22;63564;46.840;18.336;2023-12-29T08:00:34;4.62;93.27
75010;DHT22;63564;46.840;18.336;2023-12-29T08:03:35;4.77;92.32
75010;DHT22;63564;46.840;18.336;2023-12-29T08:06:39;4.80;92.19
75010;DHT22;63564;46.840;18.336;2023-12-29T08:09:39;5.11;91.51
75010;DHT22;63564;46.840;18.336;2023-12-29T08:12:40;5.20;91.34
75010;DHT22;63564;46.840;18.336;2023-12-29T08:15:40;5.22;91.34
75010;DHT22;63564;46.840;18.336;2023-12-29T08:18:40;5.49;90.74
75010;DHT22;63564;46.840;18.336;2023-12-29T08:21:41;5.59;90.85
75010;DHT22;63564;46.840;18.336;2023-12-29T08:24:41;5.96;89.36
75010;DHT22;63564;46.840;18.336;2023-12-29T08:27:44;5.89;89.96
75010;DHT22;63564;46.840;18.336;2023-12-29T08:30:45;5.76;90.75
75010;DHT22;63564;46.840;18.336;2023-12-29T08:33:45;5.94;90.53
75010;DHT22;63564;46.840;18.336;2023-12-29T08:36:46;6.48;88.88
75010;DHT22;63564;46.840;18.336;2023-12-29T08:39:46;6.63;88.19
75010;DHT22;63564;46.840;18.336;2023-12-29T08:42:50;6.38;89.03
75010;DHT22;63564;46.840;18.336;2023-12-29T08:45:50;6.21;90.44
75010;DHT22;63564;46.840;18.336;2023-12-29T08:48:51;6.80;87.68
75010;DHT22;63564;46.840;18.336;2023-12-29T08:51:51;7.07;86.85
75010;DHT22;63564;46.840;18.336;2023-12-29T08:54:51;6.39;89.00
75010;DHT22;63564;46.840;18.336;2023-12-29T08:57:52;6.77;88.79
75010;DHT22;63564;46.840;18.336;2023-12-29T09:00:52;6.82;89.37
75010;DHT22;63564;46.840;18.336;2023-12-29T09:03:52;7.30;86.64
75010;DHT22;63564;46.840;18.336;2023-12-29T09:06:53;7.30;86.98
75010;DHT22;63564;46.840;18.336;2023-12-29T09:09:53;7.20;87.71
75010;DHT22;63564;46.840;18.336;2023-12-29T09:12:54;7.56;86.41
75010;DHT22;63564;46.840;18.336;2023-12-29T09:15:55;7.62;86.13
75010;DHT22;63564;46.840;18.336;2023-12-29T09:18:55;7.55;86.53
75010;DHT22;63564;46.840;18.336;2023-12-29T09:21:55;7.72;85.10
75010;DHT22;63564;46.840;18.336;2023-12-29T09:24:56;7.85;84.99
75010;DHT22;63564;46.840;18.336;2023-12-29T09:27:56;7.76;85.71
75010;DHT22;63564;46.840;18.336;2023-12-29T09:30:56;7.86;86.52
75010;DHT22;63564;46.840;18.336;2023-12-29T09:33:57;8.15;85.07
75010;DHT22;63564;46.840;18.336;2023-12-29T09:36:57;8.87;83.07
75010;DHT22;63564;46.840;18.336;2023-12-29T09:39:58;9.69;80.88
75010;DHT22;63564;46.840;18.336;2023-12-29T09:42:59;10.48;77.89
75010;DHT22;63564;46.840;18.336;2023-12-29T09:45:59;10.23;77.28
75010;DHT22;63564;46.840;18.336;2023-12-29T09:49:03;10.43;75.86
75010;DHT22;63564;46.840;18.336;2023-12-29T09:52:07;10.96;75.05
75010;DHT22;63564;46.840;18.336;2023-12-29T09:55:10;11.12;75.23
75010;DHT22;63564;46.840;18.336;2023-12-29T09:58:12;11.02;74.77
75010;DHT22;63564;46.840;18.336;2023-12-29T10:01:12;11.13;74.99
75010;DHT22;63564;46.840;18.336;2023-12-29T10:04:13;11.44;73.76
75010;DHT22;63564;46.840;18.336;2023-12-29T10:07:24;11.36;73.93
75010;DHT22;63564;46.840;18.336;2023-12-29T10:10:26;11.31;74.38
75010;DHT22;63564;46.840;18.336;2023-12-29T10:13:27;11.81;73.58
75010;DHT22;63564;46.840;18.336;2023-12-29T10:16:38;11.20;76.42
75010;DHT22;63564;46.840;18.336;2023-12-29T10:19:40;10.88;78.23
75010;DHT22;63564;46.840;18.336;2023-12-29T10:22:51;10.65;78.74
75010;DHT22;63564;46.840;18.336;2023-12-29T10:25:52;10.61;78.93
75010;DHT22;63564;46.840;18.336;2023-12-29T10:28:52;10.45;79.20
75010;DHT22;63564;46.840;18.336;2023-12-29T10:31:53;11.10;77.97
75010;DHT22;63564;46.840;18.336;2023-12-29T10:35:07;11.13;77.88
75010;DHT22;63564;46.840;18.336;2023-12-29T10:38:12;11.63;76.51
75010;DHT22;63564;46.840;18.336;2023-12-29T10:41:14;11.34;78.27
75010;DHT22;63564;46.840;18.336;2023-12-29T10:44:16;11.30;77.03
75010;DHT22;63564;46.840;18.336;2023-12-29T10:47:16;11.64;76.60
75010;DHT22;63564;46.840;18.336;2023-12-29T10:50:16;11.51;76.79
75010;DHT22;63564;46.840;18.336;2023-12-29T10:53:17;11.63;76.17
75010;DHT22;63564;46.840;18.336;2023-12-29T10:56:18;11.43;77.08
75010;DHT22;63564;46.840;18.336;2023-12-29T10:59:21;11.28;76.32
75010;DHT22;63564;46.840;18.336;2023-12-29T11:02:22;11.77;76.06
75010;DHT22;63564;46.840;18.336;2023-12-29T11:05:25;11.95;75.22
75010;DHT22;63564;46.840;18.336;2023-12-29T11:08:26;11.96;75.00
75010;DHT22;63564;46.840;18.336;2023-12-29T11:11:26;11.91;74.74
75010;DHT22;63564;46.840;18.336;2023-12-29T11:14:27;11.65;75.85
75010;DHT22;63564;46.840;18.336;2023-12-29T11:17:31;11.96;74.35
75010;DHT22;63564;46.840;18.336;2023-12-29T11:20:35;11.95;75.16
75010;DHT22;63564;46.840;18.336;2023-12-29T11:23:36;12.08;75.54
75010;DHT22;63564;46.840;18.336;2023-12-29T11:26:37;12.30;74.26
75010;DHT22;63564;46.840;18.336;2023-12-29T11:29:41;12.57;73.33
75010;DHT22;63564;46.840;18.336;2023-12-29T11:32:51;12.88;72.44
75010;DHT22;63564;46.840;18.336;2023-12-29T11:36:02;13.33;71.44
75010;DHT22;63564;46.840;18.336;2023-12-29T11:39:10;13.49;69.53
75010;DHT22;63564;46.840;18.336;2023-12-29T11:42:21;12.95;71.55
75010;DHT22;63564;46.840;18.336;2023-12-29T11:45:29;12.77;72.22
75010;DHT22;63564;46.840;18.336;2023-12-29T11:48:57;12.88;71.66
75010;DHT22;63564;46.840;18.336;2023-12-29T11:51:58;12.81;71.38
75010;DHT22;63564;46.840;18.336;2023-12-29T11:55:14;13.02;70.97
75010;DHT22;63564;46.840;18.336;2023-12-29T11:58:25;12.94;71.56
75010;DHT22;63564;46.840;18.336;2023-12-29T12:01:34;12.67;72.07
75010;DHT22;63564;46.840;18.336;2023-12-29T12:04:36;12.61;72.09
75010;DHT22;63564;46.840;18.336;2023-12-29T12:10:40;12.61;71.34
75010;DHT22;63564;46.840;18.336;2023-12-29T12:13:45;12.65;71.08
75010;DHT22;63564;46.840;18.336;2023-12-29T12:16:49;12.74;70.00
75010;DHT22;63564;46.840;18.336;2023-12-29T12:19:51;12.73;68.76
75010;DHT22;63564;46.840;18.336;2023-12-29T12:23:02;12.67;68.78
75010;DHT22;63564;46.840;18.336;2023-12-29T12:26:06;12.51;69.50
75010;DHT22;63564;46.840;18.336;2023-12-29T12:29:07;12.34;69.43
75010;DHT22;63564;46.840;18.336;2023-12-29T12:32:08;12.40;69.33
75010;DHT22;63564;46.840;18.336;2023-12-29T12:35:15;12.51;68.89
75010;DHT22;63564;46.840;18.336;2023-12-29T12:38:19;12.49;69.10
75010;DHT22;63564;46.840;18.336;2023-12-29T12:41:26;12.54;68.44
75010;DHT22;63564;46.840;18.336;2023-12-29T12:44:29;12.46;68.64
75010;DHT22;63564;46.840;18.336;2023-12-29T12:48:00;12.46;68.58
75010;DHT22;63564;46.840;18.336;2023-12-29T12:51:01;12.60;68.88
75010;DHT22;63564;46.840;18.336;2023-12-29T12:54:03;12.63;69.00
75010;DHT22;63564;46.840;18.336;2023-12-29T12:57:03;12.94;69.14
75010;DHT22;63564;46.840;18.336;2023-12-29T13:00:05;13.09;68.10
75010;DHT22;63564;46.840;18.336;2023-12-29T13:03:06;13.29;68.30
75010;DHT22;63564;46.840;18.336;2023-12-29T13:06:07;13.44;67.82
75010;DHT22;63564;46.840;18.336;2023-12-29T13:09:07;13.20;67.95
75010;DHT22;63564;46.840;18.336;2023-12-29T13:12:14;13.04;68.24
75010;DHT22;63564;46.840;18.336;2023-12-29T13:15:15;12.99;68.53
75010;DHT22;63564;46.840;18.336;2023-12-29T13:18:16;12.94;68.45
75010;DHT22;63564;46.840;18.336;2023-12-29T13:21:17;12.97;68.53
75010;DHT22;63564;46.840;18.336;2023-12-29T13:24:18;13.09;68.67
75010;DHT22;63564;46.840;18.336;2023-12-29T13:27:19;13.14;69.08
75010;DHT22;63564;46.840;18.336;2023-12-29T13:30:20;12.92;70.35
75010;DHT22;63564;46.840;18.336;2023-12-29T13:39:44;12.88;70.41
75010;DHT22;63564;46.840;18.336;2023-12-29T13:42:48;13.23;69.52
75010;DHT22;63564;46.840;18.336;2023-12-29T13:45:51;13.15;69.94
75010;DHT22;63564;46.840;18.336;2023-12-29T13:48:52;13.19;69.64
75010;DHT22;63564;46.840;18.336;2023-12-29T13:51:53;13.35;69.19
75010;DHT22;63564;46.840;18.336;2023-12-29T13:54:54;13.83;68.24
75010;DHT22;63564;46.840;18.336;2023-12-29T13:57:54;14.17;66.70
75010;DHT22;63564;46.840;18.336;2023-12-29T14:00:58;13.70;68.41
75010;DHT22;63564;46.840;18.336;2023-12-29T14:03:59;13.74;68.17
75010;DHT22;63564;46.840;18.336;2023-12-29T14:07:01;13.52;68.14
75010;DHT22;63564;46.840;18.336;2023-12-29T14:10:01;13.60;68.26
75010;DHT22;63564;46.840;18.336;2023-12-29T14:13:10;13.57;68.24
75010;DHT22;63564;46.840;18.336;2023-12-29T14:16:12;13.30;68.69
75010;DHT22;63564;46.840;18.336;2023-12-29T14:19:12;13.11;69.33
75010;DHT22;63564;46.840;18.336;2023-12-29T14:22:21;12.77;70.58
75010;DHT22;63564;46.840;18.336;2023-12-29T14:25:22;12.70;70.50
75010;DHT22;63564;46.840;18.336;2023-12-29T14:28:22;12.39;71.23
75010;DHT22;63564;46.840;18.336;2023-12-29T14:31:22;12.20;71.90
75010;DHT22;63564;46.840;18.336;2023-12-29T14:34:23;11.89;72.98
75010;DHT22;63564;46.840;18.336;2023-12-29T14:37:23;11.71;73.63
75010;DHT22;63564;46.840;18.336;2023-12-29T14:40:24;11.67;73.71
75010;DHT22;63564;46.840;18.336;2023-12-29T14:43:24;11.44;74.42
75010;DHT22;63564;46.840;18.336;2023-12-29T14:46:25;11.46;74.37
75010;DHT22;63564;46.840;18.336;2023-12-29T14:49:25;11.28;74.83
75010;DHT22;63564;46.840;18.336;2023-12-29T14:52:25;11.06;75.48
75010;DHT22;63564;46.840;18.336;2023-12-29T14:55:26;10.89;76.08
75010;DHT22;63564;46.840;18.336;2023-12-29T14:58:26;10.79;76.57
75010;DHT22;63564;46.840;18.336;2023-12-29T15:01:27;10.64;77.16
75010;DHT22;63564;46.840;18.336;2023-12-29T15:04:27;10.47;77.70
75010;DHT22;63564;46.840;18.336;2023-12-29T15:07:31;10.29;78.24
75010;DHT22;63564;46.840;18.336;2023-12-29T15:10:34;10.25;78.54
75010;DHT22;63564;46.840;18.336;2023-12-29T15:13:34;10.12;79.01
75010;DHT22;63564;46.840;18.336;2023-12-29T15:16:35;9.99;79.63
75010;DHT22;63564;46.840;18.336;2023-12-29T15:19:35;9.93;79.86
75010;DHT22;63564;46.840;18.336;2023-12-29T15:22:36;9.85;80.19
75010;DHT22;63564;46.840;18.336;2023-12-29T15:25:37;9.76;80.62
75010;DHT22;63564;46.840;18.336;2023-12-29T15:28:38;9.65;81.05
75010;DHT22;63564;46.840;18.336;2023-12-29T15:31:42;9.59;81.29
75010;DHT22;63564;46.840;18.336;2023-12-29T15:34:43;9.51;81.88
75010;DHT22;63564;46.840;18.336;2023-12-29T15:37:43;9.42;82.26
75010;DHT22;63564;46.840;18.336;2023-12-29T15:40:44;9.49;82.37
75010;DHT22;63564;46.840;18.336;2023-12-29T15:43:44;9.54;82.26
75010;DHT22;63564;46.840;18.336;2023-12-29T15:46:46;9.42;82.37
75010;DHT22;63564;46.840;18.336;2023-12-29T15:49:47;9.24;82.86
75010;DHT22;63564;46.840;18.336;2023-12-29T15:52:47;9.01;83.67
75010;DHT22;63564;46.840;18.336;2023-12-29T15:55:48;8.89;84.25
75010;DHT22;63564;46.840;18.336;2023-12-29T15:58:48;8.80;84.27
75010;DHT22;63564;46.840;18.336;2023-12-29T16:01:48;8.71;84.57
75010;DHT22;63564;46.840;18.336;2023-12-29T16:04:49;8.54;85.25
75010;DHT22;63564;46.840;18.336;2023-12-29T16:07:49;8.21;86.22
75010;DHT22;63564;46.840;18.336;2023-12-29T16:10:50;8.08;86.69
75010;DHT22;63564;46.840;18.336;2023-12-29T16:13:50;8.07;87.27
75010;DHT22;63564;46.840;18.336;2023-12-29T16:16:50;8.13;86.82
75010;DHT22;63564;46.840;18.336;2023-12-29T16:19:51;7.82;87.64
75010;DHT22;63564;46.840;18.336;2023-12-29T16:22:51;7.51;89.02
75010;DHT22;63564;46.840;18.336;2023-12-29T16:25:53;7.31;89.74
75010;DHT22;63564;46.840;18.336;2023-12-29T16:28:53;7.21;90.20
75010;DHT22;63564;46.840;18.336;2023-12-29T16:31:53;7.01;90.54
75010;DHT22;63564;46.840;18.336;2023-12-29T16:34:54;6.93;90.83
75010;DHT22;63564;46.840;18.336;2023-12-29T16:37:54;6.89;91.51
75010;DHT22;63564;46.840;18.336;2023-12-29T16:40:55;6.73;91.95
75010;DHT22;63564;46.840;18.336;2023-12-29T16:43:55;6.69;92.44
75010;DHT22;63564;46.840;18.336;2023-12-29T16:46:56;6.57;92.64
75010;DHT22;63564;46.840;18.336;2023-12-29T16:49:57;6.59;92.92
75010;DHT22;63564;46.840;18.336;2023-12-29T16:52:57;6.48;93.42
75010;DHT22;63564;46.840;18.336;2023-12-29T16:55:58;6.50;93.62
75010;DHT22;63564;46.840;18.336;2023-12-29T16:58:59;6.52;93.65
75010;DHT22;63564;46.840;18.336;2023-12-29T17:02:01;6.49;93.89
75010;DHT22;63564;46.840;18.336;2023-12-29T17:05:07;6.48;93.71
75010;DHT22;63564;46.840;18.336;2023-12-29T17:08:09;6.24;92.48
75010;DHT22;63564;46.840;18.336;2023-12-29T17:11:09;6.10;93.15
75010;DHT22;63564;46.840;18.336;2023-12-29T17:14:10;6.01;93.96
75010;DHT22;63564;46.840;18.336;2023-12-29T17:17:11;5.98;94.56
75010;DHT22;63564;46.840;18.336;2023-12-29T17:20:11;5.97;94.84
75010;DHT22;63564;46.840;18.336;2023-12-29T17:23:11;6.01;95.01
75010;DHT22;63564;46.840;18.336;2023-12-29T17:26:12;5.96;95.16
75010;DHT22;63564;46.840;18.336;2023-12-29T17:29:15;5.96;95.28
75010;DHT22;63564;46.840;18.336;2023-12-29T17:32:15;5.96;95.31
75010;DHT22;63564;46.840;18.336;2023-12-29T17:35:16;5.91;95.04
75010;DHT22;63564;46.840;18.336;2023-12-29T17:38:20;5.85;95.27
75010;DHT22;63564;46.840;18.336;2023-12-29T17:41:21;5.83;95.35
75010;DHT22;63564;46.840;18.336;2023-12-29T17:44:21;5.79;95.41
75010;DHT22;63564;46.840;18.336;2023-12-29T17:47:22;5.79;95.45
75010;DHT22;63564;46.840;18.336;2023-12-29T17:50:22;5.83;95.50
75010;DHT22;63564;46.840;18.336;2023-12-29T17:53:22;5.87;95.29
75010;DHT22;63564;46.840;18.336;2023-12-29T17:56:23;5.85;95.39
75010;DHT22;63564;46.840;18.336;2023-12-29T17:59:23;5.86;95.44
75010;DHT22;63564;46.840;18.336;2023-12-29T18:02:23;5.81;95.28
75010;DHT22;63564;46.840;18.336;2023-12-29T18:05:26;5.77;95.38
75010;DHT22;63564;46.840;18.336;2023-12-29T18:08:26;5.73;95.58
75010;DHT22;63564;46.840;18.336;2023-12-29T18:11:27;5.81;95.31
75010;DHT22;63564;46.840;18.336;2023-12-29T18:14:30;5.85;95.20
75010;DHT22;63564;46.840;18.336;2023-12-29T18:17:30;5.85;95.40
75010;DHT22;63564;46.840;18.336;2023-12-29T18:20:34;5.91;95.35
75010;DHT22;63564;46.840;18.336;2023-12-29T18:23:34;6.00;95.38
75010;DHT22;63564;46.840;18.336;2023-12-29T18:26:40;6.01;95.04
75010;DHT22;63564;46.840;18.336;2023-12-29T18:29:41;5.98;94.94
75010;DHT22;63564;46.840;18.336;2023-12-29T18:32:41;5.96;94.88
75010;DHT22;63564;46.840;18.336;2023-12-29T18:35:42;6.01;94.73
75010;DHT22;63564;46.840;18.336;2023-12-29T18:38:42;6.03;94.95
75010;DHT22;63564;46.840;18.336;2023-12-29T18:41:42;6.01;95.19
75010;DHT22;63564;46.840;18.336;2023-12-29T18:44:43;6.06;94.81
75010;DHT22;63564;46.840;18.336;2023-12-29T18:47:44;5.96;95.17
75010;DHT22;63564;46.840;18.336;2023-12-29T18:50:45;6.00;95.80
75010;DHT22;63564;46.840;18.336;2023-12-29T18:53:45;5.96;95.71
75010;DHT22;63564;46.840;18.336;2023-12-29T18:56:46;5.93;95.85
75010;DHT22;63564;46.840;18.336;2023-12-29T18:59:46;5.73;95.65
75010;DHT22;63564;46.840;18.336;2023-12-29T19:02:47;5.80;96.31
75010;DHT22;63564;46.840;18.336;2023-12-29T19:05:47;5.86;96.41
75010;DHT22;63564;46.840;18.336;2023-12-29T19:08:49;6.26;96.06
75010;DHT22;63564;46.840;18.336;2023-12-29T19:11:50;5.89;94.68
75010;DHT22;63564;46.840;18.336;2023-12-29T19:14:50;5.93;96.26